createdAt,value
2023-01-02T00:02:06.820Z,66.33
2023-01-02T00:07:08.287Z,65.98
2023-01-02T00:17:20.588Z,66.18
2023-01-02T00:22:21.940Z,66.34
2023-01-02T00:27:23.279Z,66.67
2023-01-02T00:32:24.671Z,66.35
2023-01-02T00:37:26.051Z,66.58
2023-01-02T00:42:27.437Z,66.57
2023-01-02T00:47:28.781Z,66.61
2023-01-02T00:52:30.144Z,66.95
2023-01-02T00:57:31.543Z,67.26
2023-01-02T01:02:33.277Z,66.71
2023-01-02T01:07:34.728Z,66.69
2023-01-02T01:12:36.072Z,66.52
2023-01-02T01:17:37.437Z,67.20
2023-01-02T01:22:38.821Z,66.87
2023-01-02T01:27:40.216Z,67.07
2023-01-02T01:32:41.635Z,66.47
2023-01-02T01:37:43.149Z,66.19
2023-01-02T01:42:44.507Z,66.35
2023-01-02T01:47:55.009Z,65.95
2023-01-02T01:53:08.641Z,66.03
2023-01-02T01:58:19.085Z,65.67
2023-01-02T02:03:24.025Z,65.14
2023-01-02T02:08:56.541Z,65.15
2023-01-02T02:13:59.881Z,64.63
2023-01-02T02:19:49.253Z,64.37
2023-01-02T02:24:53.410Z,64.33
2023-01-02T02:30:16.797Z,64.10
2023-01-02T02:35:49.666Z,64.19
2023-01-02T02:41:14.309Z,64.28
2023-01-02T02:46:22.316Z,64.19
2023-01-02T02:51:35.366Z,64.04
2023-01-02T02:56:36.820Z,64.18
2023-01-02T03:01:38.790Z,64.24
2023-01-02T03:07:21.733Z,64.38
2023-01-02T03:13:00.741Z,64.50
2023-01-02T03:18:04.845Z,64.71
2023-01-02T03:23:13.277Z,64.66
2023-01-02T03:28:18.195Z,65.12
2023-01-02T03:33:29.801Z,65.15
2023-01-02T03:38:36.626Z,65.36
2023-01-02T03:43:41.380Z,65.42
2023-01-02T03:48:45.444Z,65.26
2023-01-02T03:53:49.992Z,65.41
2023-01-02T03:58:58.481Z,66.08
2023-01-02T04:04:10.687Z,66.22
2023-01-02T04:09:26.103Z,66.17
2023-01-02T04:14:47.902Z,66.09
2023-01-02T04:19:54.433Z,66.71
2023-01-02T04:25:09.897Z,66.71
2023-01-02T04:30:11.430Z,66.51
2023-01-02T04:35:20.281Z,66.88
2023-01-02T04:40:30.789Z,66.75
2023-01-02T04:45:32.141Z,67.12
2023-01-02T04:50:33.511Z,67.46
2023-01-02T04:55:35.004Z,67.05
2023-01-02T05:00:36.424Z,66.94
2023-01-02T05:05:37.782Z,67.00
2023-01-02T05:10:39.205Z,67.09
2023-01-02T05:15:40.641Z,67.49
2023-01-02T05:20:41.979Z,67.42
2023-01-02T05:25:43.312Z,67.21
2023-01-02T05:30:44.787Z,67.10
2023-01-02T05:35:46.163Z,67.18
2023-01-02T05:40:47.511Z,67.25
2023-01-02T05:45:48.854Z,67.17
2023-01-02T05:50:50.421Z,67.16
2023-01-02T05:55:51.766Z,67.62
2023-01-02T06:00:53.107Z,67.41
2023-01-02T06:05:54.446Z,67.51
2023-01-02T06:10:55.865Z,67.22
2023-01-02T06:15:59.206Z,67.49
2023-01-02T06:21:11.488Z,67.19
2023-01-02T06:26:15.851Z,67.31
2023-01-02T06:31:18.831Z,67.81
2023-01-02T06:36:20.377Z,68.14
2023-01-02T06:41:21.807Z,68.32
2023-01-02T06:46:23.864Z,68.58
2023-01-02T06:51:25.249Z,68.82
2023-01-02T06:56:26.614Z,68.50
2023-01-02T07:01:29.897Z,68.63
2023-01-02T07:06:31.402Z,69.09
2023-01-02T07:11:32.974Z,68.87
2023-01-02T07:16:34.500Z,69.28
2023-01-02T07:21:35.907Z,68.94
2023-01-02T07:26:37.280Z,69.34
2023-01-02T07:31:38.701Z,68.95
2023-01-02T07:36:40.055Z,68.93
2023-01-02T07:41:41.448Z,68.77
2023-01-02T07:46:42.883Z,68.30
2023-01-02T07:51:44.401Z,67.96
2023-01-02T07:56:45.873Z,67.69
2023-01-02T08:01:50.120Z,67.25
2023-01-02T08:06:51.648Z,66.66
2023-01-02T08:11:53.755Z,66.26
2023-01-02T08:16:55.310Z,65.90
2023-01-02T08:21:56.853Z,65.25
2023-01-02T08:26:58.405Z,64.86
2023-01-02T08:32:00.105Z,64.26
2023-01-02T08:37:01.627Z,63.94
2023-01-02T08:42:03.405Z,63.47
2023-01-02T08:47:05.629Z,63.14
2023-01-02T08:52:07.342Z,62.78
2023-01-02T08:57:08.946Z,62.60
2023-01-02T09:02:14.970Z,62.28
2023-01-02T09:07:17.626Z,62.19
2023-01-02T09:12:19.115Z,61.74
2023-01-02T09:17:20.674Z,61.57
2023-01-02T09:22:22.238Z,61.03
2023-01-02T09:27:23.828Z,60.83
2023-01-02T09:32:25.511Z,60.89
2023-01-02T09:37:28.524Z,60.34
2023-01-02T09:42:32.319Z,60.00
2023-01-02T09:47:36.472Z,59.58
2023-01-02T09:52:43.006Z,59.25
2023-01-02T09:58:16.720Z,59.23
2023-01-02T10:03:45.110Z,58.89
2023-01-02T10:08:52.503Z,58.83
2023-01-02T10:19:38.724Z,60.20
2023-01-02T10:30:48.074Z,61.18
2023-01-02T10:35:55.505Z,61.07
2023-01-02T10:40:56.949Z,61.31
2023-01-02T10:46:00.958Z,61.08
2023-01-02T10:51:06.437Z,60.81
2023-01-02T10:56:20.451Z,60.43
2023-01-02T11:01:22.855Z,60.56
2023-01-02T11:06:38.798Z,60.43
2023-01-02T11:11:58.401Z,60.56
2023-01-02T11:17:11.896Z,61.32
2023-01-02T11:22:16.911Z,62.20
2023-01-02T11:27:18.621Z,62.35
2023-01-02T11:32:27.796Z,62.76
2023-01-02T11:37:29.901Z,63.80
2023-01-02T11:43:02.757Z,64.08
2023-01-02T11:48:14.798Z,65.16
2023-01-02T11:53:26.494Z,65.55
2023-01-02T11:58:45.464Z,66.37
2023-01-02T12:03:47.553Z,66.67
2023-01-02T12:09:05.361Z,66.55
2023-01-02T12:14:23.398Z,67.00
2023-01-02T12:19:38.584Z,67.43
2023-01-02T12:25:11.768Z,67.81
2023-01-02T12:30:19.668Z,68.27
2023-01-02T12:35:47.610Z,67.82
2023-01-02T12:40:57.768Z,68.12
2023-01-02T12:46:33.460Z,67.90
2023-01-02T12:52:07.369Z,67.97
2023-01-02T12:57:41.172Z,68.58
2023-01-02T13:03:01.151Z,68.87
2023-01-02T13:08:15.034Z,69.80
2023-01-02T13:13:17.038Z,70.50
2023-01-02T13:19:00.723Z,70.96
2023-01-02T13:24:03.444Z,71.11
2023-01-02T13:29:08.183Z,71.30
2023-01-02T13:34:15.416Z,70.75
2023-01-02T13:39:28.144Z,70.67
2023-01-02T13:44:36.077Z,70.49
2023-01-02T13:49:37.546Z,70.33
2023-01-02T13:54:38.933Z,70.56
2023-01-02T14:00:01.428Z,70.41
2023-01-02T14:05:41.505Z,70.68
2023-01-02T14:10:45.363Z,70.67
2023-01-02T14:16:24.789Z,70.93
2023-01-02T14:21:33.135Z,71.24
2023-01-02T14:26:37.799Z,71.43
2023-01-02T14:31:39.625Z,71.41
2023-01-02T14:36:43.177Z,71.49
2023-01-02T14:42:09.404Z,71.69
2023-01-02T14:47:19.701Z,71.98
2023-01-02T14:52:28.722Z,72.22
2023-01-02T14:57:33.976Z,72.40
2023-01-02T15:02:41.442Z,73.16
2023-01-02T15:07:52.828Z,73.25
2023-01-02T15:13:08.861Z,73.48
2023-01-02T15:18:29.311Z,73.67
2023-01-02T15:23:30.773Z,74.14
2023-01-02T15:28:33.787Z,73.79
2023-01-02T15:33:35.223Z,73.97
2023-01-02T15:38:36.681Z,75.10
2023-01-02T15:43:57.957Z,74.90
2023-01-02T15:49:00.444Z,75.05
2023-01-02T15:54:03.614Z,75.47
2023-01-02T15:59:45.075Z,75.88
2023-01-02T16:04:46.434Z,75.73
2023-01-02T16:09:55.537Z,76.63
2023-01-02T16:14:59.177Z,77.00
2023-01-02T16:20:11.587Z,76.78
2023-01-02T16:25:18.688Z,77.20
2023-01-02T16:30:32.627Z,77.29
2023-01-02T16:35:34.430Z,77.11
2023-01-02T16:40:59.966Z,76.82
2023-01-02T16:46:04.393Z,76.57
2023-01-02T16:51:06.054Z,76.72
2023-01-02T16:56:10.996Z,76.66
2023-01-02T17:01:14.674Z,77.25
2023-01-02T17:06:18.631Z,77.01
2023-01-02T17:11:23.018Z,77.05
2023-01-02T17:16:24.395Z,76.96
2023-01-02T17:21:32.356Z,77.38
2023-01-02T17:26:34.478Z,77.61
2023-01-02T17:31:35.891Z,78.04
2023-01-02T17:36:37.501Z,78.76
2023-01-02T17:41:38.860Z,78.19
2023-01-02T17:52:01.506Z,78.35
2023-01-02T17:57:02.925Z,78.08
2023-01-02T18:02:06.621Z,78.19
2023-01-02T18:07:08.166Z,77.74
2023-01-02T18:12:11.001Z,77.61
2023-01-02T18:17:30.016Z,77.14
2023-01-02T18:22:31.873Z,76.97
2023-01-02T18:27:34.828Z,76.79
2023-01-02T18:32:38.617Z,77.18
2023-01-02T18:37:41.368Z,76.55
2023-01-02T18:42:45.670Z,76.61
2023-01-02T18:47:51.564Z,77.00
2023-01-02T18:52:52.988Z,76.52
2023-01-02T18:58:44.144Z,76.30
2023-01-02T19:03:47.860Z,76.54
2023-01-02T19:08:49.355Z,76.12
2023-01-02T19:13:56.823Z,76.54
2023-01-02T19:19:00.039Z,76.62
2023-01-02T19:24:04.493Z,76.52
2023-01-02T19:29:11.804Z,76.78
2023-01-02T19:34:40.894Z,76.14
2023-01-02T19:39:48.432Z,76.22
2023-01-02T19:44:53.943Z,76.15
2023-01-02T19:49:56.008Z,75.72
2023-01-02T19:54:57.766Z,75.86
2023-01-02T19:59:59.122Z,75.79
2023-01-02T20:05:00.536Z,75.59
2023-01-02T20:10:02.045Z,75.08
2023-01-02T20:15:08.681Z,75.75
2023-01-02T20:20:14.862Z,76.06
2023-01-02T20:25:18.963Z,76.58
2023-01-02T20:30:24.477Z,77.01
2023-01-02T20:35:26.364Z,76.82
2023-01-02T20:40:28.017Z,76.95
2023-01-02T20:45:29.375Z,76.99
2023-01-02T20:50:30.701Z,76.89
2023-01-02T20:55:32.674Z,76.86
2023-01-02T21:00:34.468Z,76.52
2023-01-02T21:05:36.628Z,76.77
2023-01-02T21:10:38.025Z,77.11
2023-01-02T21:15:42.072Z,76.94
2023-01-02T21:20:46.723Z,77.02
2023-01-02T21:25:48.778Z,76.91
2023-01-02T21:30:50.898Z,76.46
2023-01-02T21:35:54.756Z,76.24
2023-01-02T21:41:17.263Z,76.16
2023-01-02T21:46:18.753Z,75.91
2023-01-02T21:51:20.179Z,75.85
2023-01-02T21:56:21.535Z,75.98
2023-01-02T22:01:23.017Z,75.65
2023-01-02T22:06:25.628Z,75.92
2023-01-02T22:11:45.767Z,76.21
2023-01-02T22:16:47.204Z,76.29
2023-01-02T22:21:48.712Z,76.83
2023-01-02T22:26:51.703Z,76.78
2023-01-02T22:31:54.935Z,77.15
2023-01-02T22:36:56.462Z,77.41
2023-01-02T22:42:57.800Z,76.68
2023-01-02T22:47:39.743Z,76.63
2023-01-02T22:52:41.140Z,76.68
2023-01-02T22:57:47.517Z,76.82
2023-01-02T23:02:52.770Z,77.17
2023-01-02T23:07:54.196Z,77.40
2023-01-02T23:12:55.727Z,77.25
2023-01-02T23:18:15.599Z,76.90
2023-01-02T23:23:16.911Z,76.81
2023-01-02T23:28:39.315Z,77.04
2023-01-02T23:33:39.626Z,77.02
2023-01-02T23:38:41.019Z,77.15
2023-01-02T23:43:42.348Z,77.11
2023-01-02T23:48:43.811Z,76.58
2023-01-02T23:53:45.173Z,76.88
2023-01-02T23:58:47.972Z,76.69
